createdAt,value
2019-04-05T00:00:23.441Z,46.45
2019-04-05T00:02:51.896Z,50.48
2019-04-05T00:05:20.329Z,49.03
2019-04-05T00:07:48.791Z,53.95
2019-04-05T00:10:17.233Z,55.80
2019-04-05T00:12:45.685Z,58.35
2019-04-05T00:15:15.876Z,57.05
2019-04-05T00:17:44.593Z,56.98
2019-04-05T00:20:14.919Z,58.38
2019-04-05T00:22:43.409Z,60.55
2019-04-05T00:25:12.007Z,60.48
2019-04-05T00:27:40.452Z,60.55
2019-04-05T00:30:10.418Z,56.73
2019-04-05T00:32:38.872Z,55.28
2019-04-05T00:35:08.495Z,59.48
2019-04-05T00:37:36.933Z,58.00
2019-04-05T00:40:09.970Z,58.05
2019-04-05T00:42:38.413Z,56.98
2019-04-05T00:45:09.024Z,55.92
2019-04-05T00:47:37.461Z,58.75
2019-04-05T00:50:08.046Z,57.88
2019-04-05T00:52:36.483Z,57.62
2019-04-05T00:55:06.469Z,59.15
2019-04-05T00:57:34.905Z,60.10
2019-04-05T01:00:03.744Z,59.85
2019-04-05T01:02:32.178Z,59.63
2019-04-05T01:05:00.629Z,57.10
2019-04-05T01:07:29.140Z,56.25
2019-04-05T01:09:57.660Z,60.20
2019-04-05T01:12:26.168Z,61.02
2019-04-05T01:14:55.264Z,56.58
2019-04-05T01:17:25.065Z,61.45
2019-04-05T01:19:57.012Z,59.10
2019-04-05T01:22:27.890Z,58.98
2019-04-05T01:24:57.808Z,56.85
2019-04-05T01:27:26.984Z,59.13
2019-04-05T01:29:55.533Z,57.10
2019-04-05T01:32:24.033Z,57.58
2019-04-05T01:34:52.559Z,57.50
2019-04-05T01:37:21.932Z,56.63
2019-04-05T01:39:50.385Z,58.70
2019-04-05T01:42:19.395Z,59.43
2019-04-05T01:44:47.840Z,57.05
2019-04-05T01:47:16.286Z,59.42
2019-04-05T01:49:44.749Z,58.13
2019-04-05T01:52:13.210Z,59.40
2019-04-05T01:54:41.657Z,56.02
2019-04-05T01:57:10.102Z,56.68
2019-04-05T01:59:38.555Z,57.58
2019-04-05T02:02:06.988Z,57.88
2019-04-05T02:04:35.508Z,56.58
2019-04-05T02:07:03.951Z,58.35
2019-04-05T02:09:32.656Z,56.37
2019-04-05T02:12:01.205Z,56.30
2019-04-05T02:14:29.714Z,55.38
2019-04-05T02:16:58.162Z,55.83
2019-04-05T02:19:26.681Z,56.00
2019-04-05T02:21:55.200Z,57.53
2019-04-05T02:24:23.640Z,55.38
2019-04-05T02:26:52.069Z,55.75
2019-04-05T02:29:20.528Z,53.65
2019-04-05T02:31:48.971Z,53.80
2019-04-05T02:34:17.421Z,56.05
2019-04-05T02:36:45.941Z,54.65
2019-04-05T02:39:14.462Z,55.50
2019-04-05T02:41:43.458Z,52.67
2019-04-05T02:44:13.845Z,56.23
2019-04-05T02:46:44.533Z,54.45
2019-04-05T02:49:14.136Z,56.13
2019-04-05T02:51:44.430Z,54.80
2019-04-05T02:54:14.521Z,54.00
2019-04-05T02:56:43.450Z,52.38
2019-04-05T02:59:13.281Z,53.78
2019-04-05T03:01:42.284Z,54.23
2019-04-05T03:04:10.929Z,52.62
2019-04-05T03:06:39.846Z,54.38
2019-04-05T03:09:08.890Z,54.27
2019-04-05T03:11:39.178Z,55.10
2019-04-05T03:14:09.961Z,53.63
2019-04-05T03:16:42.162Z,55.70
2019-04-05T03:19:13.891Z,54.50
2019-04-05T03:21:45.418Z,57.15
2019-04-05T03:24:16.465Z,57.83
2019-04-05T03:26:47.984Z,58.00
2019-04-05T03:29:16.427Z,59.27
2019-04-05T03:31:45.336Z,57.38
2019-04-05T03:34:13.860Z,58.78
2019-04-05T03:36:42.446Z,58.13
2019-04-05T03:39:10.940Z,57.93
2019-04-05T03:41:40.031Z,56.02
2019-04-05T03:44:09.506Z,61.80
2019-04-05T03:46:54.805Z,57.58
2019-04-05T03:49:09.027Z,60.20
2019-04-05T03:51:37.483Z,60.25
2019-04-05T03:54:06.393Z,57.58
2019-04-05T03:56:38.015Z,59.25
2019-04-05T03:59:05.444Z,57.53
2019-04-05T04:01:34.080Z,57.05
2019-04-05T04:04:02.862Z,58.83
2019-04-05T04:06:31.382Z,56.85
2019-04-05T04:08:59.991Z,58.83
2019-04-05T04:11:28.460Z,62.83
2019-04-05T04:13:56.913Z,59.93
2019-04-05T04:16:25.358Z,60.55
2019-04-05T04:18:53.884Z,60.92
2019-04-05T04:21:28.290Z,58.35
2019-04-05T04:23:56.801Z,60.45
2019-04-05T04:26:25.385Z,58.78
2019-04-05T04:28:54.299Z,58.85
2019-04-05T04:31:22.825Z,64.75
2019-04-05T04:33:52.110Z,77.37
2019-04-05T04:36:21.126Z,65.60
2019-04-05T04:38:50.516Z,59.18
2019-04-05T04:41:19.724Z,57.50
2019-04-05T04:43:48.645Z,57.33
2019-04-05T04:46:17.460Z,58.87
2019-04-05T04:48:45.914Z,58.78
2019-04-05T04:51:14.717Z,57.98
2019-04-05T04:53:43.701Z,70.10
2019-04-05T04:56:12.148Z,65.20
2019-04-05T04:58:40.602Z,59.65
2019-04-05T05:01:09.398Z,57.90
2019-04-05T05:03:38.211Z,60.33
2019-04-05T05:06:06.833Z,59.03
2019-04-05T05:08:35.505Z,58.13
2019-04-05T05:11:13.927Z,57.48
2019-04-05T05:13:34.593Z,54.95
2019-04-05T05:16:03.129Z,61.05
2019-04-05T05:18:31.944Z,62.35
2019-04-05T05:21:00.464Z,57.33
2019-04-05T05:23:29.277Z,62.98
2019-04-05T05:25:57.921Z,63.90
2019-04-05T05:28:26.601Z,57.15
2019-04-05T05:30:55.190Z,57.53
2019-04-05T05:33:23.868Z,57.58
2019-04-05T05:35:52.670Z,59.18
2019-04-05T05:38:21.472Z,55.78
2019-04-05T05:40:50.004Z,56.60
2019-04-05T05:43:18.452Z,58.42
2019-04-05T05:45:46.997Z,61.53
2019-04-05T05:48:15.663Z,67.65
2019-04-05T05:50:44.839Z,92.15
2019-04-05T05:53:13.448Z,80.10
2019-04-05T05:55:41.929Z,65.67
2019-04-05T05:58:10.364Z,81.08
2019-04-05T06:00:38.825Z,74.62
2019-04-05T06:03:10.770Z,74.47
2019-04-05T06:05:37.445Z,62.08
2019-04-05T06:08:05.914Z,57.67
2019-04-05T06:10:34.414Z,58.42
2019-04-05T06:13:06.831Z,56.30
2019-04-05T06:15:33.130Z,56.28
2019-04-05T06:18:04.806Z,56.73
2019-04-05T06:20:31.775Z,53.68
2019-04-05T06:23:00.293Z,55.05
2019-04-05T06:25:28.831Z,55.98
2019-04-05T06:27:59.686Z,56.73
2019-04-05T06:30:28.936Z,53.00
2019-04-05T06:32:57.687Z,53.40
2019-04-05T06:35:26.139Z,53.63
2019-04-05T06:37:54.637Z,55.78
2019-04-05T06:40:23.086Z,55.00
2019-04-05T06:42:51.547Z,62.95
2019-04-05T06:45:19.982Z,60.60
2019-04-05T06:47:48.435Z,72.80
2019-04-05T06:50:16.888Z,60.38
2019-04-05T06:52:45.332Z,59.23
2019-04-05T06:55:13.869Z,59.77
2019-04-05T06:57:42.332Z,58.83
2019-04-05T07:00:11.007Z,54.48
2019-04-05T07:02:39.537Z,52.90
2019-04-05T07:05:07.984Z,54.67
2019-04-05T07:07:36.456Z,53.23
2019-04-05T07:10:06.031Z,53.40
2019-04-05T07:12:34.490Z,56.15
2019-04-05T07:15:03.013Z,53.55
2019-04-05T07:17:31.465Z,54.13
2019-04-05T07:19:59.910Z,51.68
2019-04-05T07:22:38.458Z,51.68
2019-04-05T07:24:58.528Z,51.05
2019-04-05T07:27:26.976Z,52.17
2019-04-05T07:29:55.408Z,50.78
2019-04-05T07:32:23.877Z,49.73
2019-04-05T07:34:52.312Z,50.50
2019-04-05T07:37:20.770Z,50.85
2019-04-05T07:39:49.254Z,52.58
2019-04-05T07:42:17.758Z,52.75
2019-04-05T07:44:46.195Z,53.13
2019-04-05T07:47:14.657Z,51.42
2019-04-05T07:49:43.094Z,52.35
2019-04-05T07:52:12.990Z,51.90
2019-04-05T07:54:41.780Z,50.03
2019-04-05T07:57:10.292Z,50.45
2019-04-05T07:59:38.729Z,50.78
2019-04-05T08:02:07.202Z,50.85
2019-04-05T08:04:39.531Z,51.48
2019-04-05T08:07:08.520Z,50.80
2019-04-05T08:09:37.705Z,51.28
2019-04-05T08:12:07.099Z,50.08
2019-04-05T08:14:38.831Z,51.58
2019-04-05T08:17:07.287Z,50.52
2019-04-05T08:19:35.878Z,52.05
2019-04-05T08:22:04.500Z,48.87
2019-04-05T08:24:32.943Z,48.00
2019-04-05T08:27:01.405Z,47.83
2019-04-05T08:29:29.846Z,48.65
2019-04-05T08:31:58.377Z,47.95
2019-04-05T08:34:26.821Z,49.58
2019-04-05T08:36:55.272Z,46.18
2019-04-05T08:39:23.722Z,47.53
2019-04-05T08:41:52.169Z,47.40
2019-04-05T08:44:20.625Z,47.43
2019-04-05T08:46:49.065Z,47.17
2019-04-05T08:49:17.536Z,47.23
2019-04-05T08:51:45.966Z,45.15
2019-04-05T08:54:14.412Z,43.92
2019-04-05T08:56:42.937Z,44.55
2019-04-05T08:59:11.393Z,46.13
2019-04-05T09:01:39.844Z,43.40
2019-04-05T09:04:08.377Z,45.45
2019-04-05T09:06:36.824Z,45.83
2019-04-05T09:09:07.115Z,45.08
2019-04-05T09:11:35.622Z,46.33
2019-04-05T09:14:04.151Z,46.53
2019-04-05T09:16:32.602Z,43.50
2019-04-05T09:19:01.049Z,45.73
2019-04-05T09:21:29.493Z,43.17
2019-04-05T09:23:59.425Z,41.63
2019-04-05T09:26:28.041Z,44.50
2019-04-05T09:28:56.490Z,41.58
2019-04-05T09:31:24.936Z,41.92
2019-04-05T09:33:53.394Z,42.38
2019-04-05T09:36:21.838Z,41.83
2019-04-05T09:38:50.281Z,42.38
2019-04-05T09:41:18.729Z,41.90
2019-04-05T09:43:47.194Z,40.43
2019-04-05T09:46:15.641Z,41.60
2019-04-05T09:48:44.097Z,40.12
2019-04-05T09:51:12.548Z,38.73
2019-04-05T09:53:41.002Z,40.10
2019-04-05T09:56:09.438Z,40.40
2019-04-05T09:58:37.900Z,38.13
2019-04-05T10:01:06.329Z,41.60
2019-04-05T10:03:34.780Z,41.18
2019-04-05T10:06:03.223Z,40.45
2019-04-05T10:08:31.878Z,39.48
2019-04-05T10:11:00.310Z,43.02
2019-04-05T10:13:28.761Z,41.15
2019-04-05T10:15:57.215Z,44.20
2019-04-05T10:18:25.670Z,47.40
2019-04-05T10:20:54.117Z,44.15
2019-04-05T10:23:22.570Z,45.03
2019-04-05T10:25:51.008Z,43.85
2019-04-05T10:28:19.448Z,43.10
2019-04-05T10:30:47.887Z,44.18
2019-04-05T10:33:16.340Z,43.20
2019-04-05T10:35:44.771Z,43.23
2019-04-05T10:38:13.243Z,42.05
2019-04-05T10:40:41.672Z,41.48
2019-04-05T10:43:10.269Z,42.38
2019-04-05T10:45:38.701Z,39.80
2019-04-05T10:48:07.165Z,40.60
2019-04-05T10:50:35.599Z,40.83
2019-04-05T10:53:05.741Z,41.35
2019-04-05T10:55:34.209Z,40.95
2019-04-05T10:58:02.717Z,41.92
2019-04-05T11:00:31.221Z,41.95
2019-04-05T11:02:59.668Z,42.08
2019-04-05T11:05:28.131Z,40.08
2019-04-05T11:07:56.583Z,39.38
2019-04-05T11:10:25.085Z,39.50
2019-04-05T11:12:53.523Z,38.80
2019-04-05T11:15:21.960Z,39.40
2019-04-05T11:17:50.465Z,36.90
2019-04-05T11:20:21.965Z,37.17
2019-04-05T11:22:51.283Z,37.15
2019-04-05T11:25:20.809Z,37.38
2019-04-05T11:27:49.679Z,37.90
2019-04-05T11:30:21.192Z,39.15
2019-04-05T11:32:49.704Z,38.92
2019-04-05T11:35:18.153Z,36.58
2019-04-05T11:37:49.795Z,37.95
2019-04-05T11:40:16.896Z,36.95
2019-04-05T11:42:47.068Z,35.85
2019-04-05T11:45:15.783Z,33.85
2019-04-05T11:47:44.967Z,35.80
2019-04-05T11:50:14.958Z,36.20
2019-04-05T11:52:43.413Z,35.88
2019-04-05T11:55:11.861Z,37.33
2019-04-05T11:57:41.441Z,36.73
2019-04-05T12:00:18.484Z,37.75
2019-04-05T12:02:48.599Z,38.48
2019-04-05T12:05:17.833Z,37.10
2019-04-05T12:07:46.264Z,37.48
2019-04-05T12:10:16.726Z,36.65
2019-04-05T12:12:45.054Z,38.28
2019-04-05T12:15:13.728Z,39.42
2019-04-05T12:17:42.173Z,35.23
2019-04-05T12:20:11.473Z,36.38
2019-04-05T12:22:39.916Z,37.48
2019-04-05T12:25:08.504Z,37.03
2019-04-05T12:27:36.943Z,36.23
2019-04-05T12:30:09.492Z,34.03
2019-04-05T12:32:41.269Z,35.63
2019-04-05T12:35:08.611Z,35.33
2019-04-05T12:37:49.644Z,35.45
2019-04-05T12:40:10.396Z,34.45
2019-04-05T12:42:38.070Z,34.20
2019-04-05T12:45:09.840Z,34.67
2019-04-05T12:47:38.289Z,35.13
2019-04-05T12:50:08.545Z,32.65
2019-04-05T12:52:37.001Z,33.18
2019-04-05T12:55:08.694Z,33.48
2019-04-05T12:57:37.138Z,32.83
2019-04-05T13:00:14.164Z,31.90
2019-04-05T13:02:43.149Z,32.20
2019-04-05T13:05:11.936Z,34.85
2019-04-05T13:07:40.374Z,33.25
2019-04-05T13:10:09.465Z,34.25
2019-04-05T13:12:37.919Z,35.70
2019-04-05T13:15:12.875Z,35.75
2019-04-05T13:17:37.202Z,34.63
2019-04-05T13:20:07.000Z,35.95
2019-04-05T13:22:35.444Z,36.45
2019-04-05T13:25:06.339Z,39.00
2019-04-05T13:27:34.851Z,35.28
2019-04-05T13:30:04.272Z,34.25
2019-04-05T13:32:32.725Z,34.83
2019-04-05T13:35:01.170Z,35.38
2019-04-05T13:37:30.883Z,34.70
2019-04-05T13:40:00.095Z,36.03
2019-04-05T13:42:31.245Z,33.18
2019-04-05T13:45:02.151Z,32.15
2019-04-05T13:47:32.904Z,29.72
2019-04-05T13:53:04.703Z,25.92
2019-04-05T13:55:33.276Z,25.62
2019-04-05T13:58:01.752Z,13.50
2019-04-05T14:02:06.006Z,14.23
2019-04-05T14:03:09.907Z,14.53
2019-04-05T14:05:38.739Z,14.45
2019-04-05T14:08:10.354Z,11.55
2019-04-05T14:10:55.057Z,9.28
2019-04-05T14:16:22.964Z,9.10
2019-04-05T14:18:53.576Z,9.35
2019-04-05T14:21:22.571Z,9.95
2019-04-05T14:23:51.322Z,9.30
2019-04-05T14:26:24.231Z,9.70
2019-04-05T14:28:54.425Z,9.45
2019-04-05T14:31:23.076Z,9.85
2019-04-05T14:33:55.175Z,10.08
2019-04-05T14:36:24.792Z,9.48
2019-04-05T14:38:57.684Z,8.83
2019-04-05T14:42:09.638Z,9.05
2019-04-05T14:44:48.140Z,10.05
2019-04-05T14:47:16.593Z,8.98
2019-04-05T14:49:45.046Z,9.55
2019-04-05T14:52:13.589Z,9.58
2019-04-05T14:55:10.492Z,9.30
2019-04-05T14:57:37.349Z,23.55
2019-04-05T15:00:24.790Z,18.20
2019-04-05T15:03:02.092Z,22.62
2019-04-05T15:05:30.632Z,25.57
2019-04-05T15:07:59.431Z,57.23
2019-04-05T15:10:29.505Z,34.43
2019-04-05T15:13:00.135Z,27.48
2019-04-05T15:15:30.092Z,27.60
2019-04-05T15:18:04.627Z,26.75
2019-04-05T15:20:34.808Z,26.62
2019-04-05T15:23:03.487Z,26.90
2019-04-05T15:25:32.238Z,27.45
2019-04-05T15:28:01.907Z,24.23
2019-04-05T15:30:30.449Z,26.52
2019-04-05T15:33:00.618Z,26.75
2019-04-05T15:35:29.380Z,25.10
2019-04-05T15:38:01.323Z,25.75
2019-04-05T15:40:30.983Z,24.75
2019-04-05T15:43:02.115Z,25.10
2019-04-05T15:45:48.004Z,22.50
2019-04-05T15:48:16.575Z,20.35
2019-04-05T15:50:45.102Z,21.33
2019-04-05T15:53:13.546Z,22.10
2019-04-05T15:55:41.990Z,23.95
2019-04-05T15:58:10.433Z,23.87
2019-04-05T16:00:41.288Z,23.92
2019-04-05T16:03:09.736Z,25.52
2019-04-05T16:05:38.416Z,23.73
2019-04-05T16:08:06.849Z,24.15
2019-04-05T16:10:35.308Z,23.62
2019-04-05T16:13:03.756Z,23.15
2019-04-05T16:15:32.493Z,24.20
2019-04-05T16:18:04.200Z,22.80
2019-04-05T16:20:32.690Z,22.32
2019-04-05T16:23:01.133Z,21.57
2019-04-05T16:25:29.582Z,20.10
2019-04-05T16:27:58.032Z,19.57
2019-04-05T16:30:26.473Z,18.37
2019-04-05T16:32:54.913Z,17.85
2019-04-05T16:35:23.380Z,17.98
2019-04-05T16:37:51.836Z,16.77
2019-04-05T16:40:21.013Z,39.67
2019-04-05T16:43:01.831Z,55.08
2019-04-05T16:45:20.174Z,32.95
2019-04-05T16:47:48.647Z,25.43
2019-04-05T16:50:17.224Z,30.45
2019-04-05T16:52:45.684Z,28.38
2019-04-05T16:55:17.075Z,20.32
2019-04-05T16:57:45.517Z,23.35
2019-04-05T17:00:15.104Z,26.15
2019-04-05T17:02:43.546Z,23.83
2019-04-05T17:05:12.413Z,22.62
2019-04-05T17:07:40.869Z,20.32
2019-04-05T17:10:09.961Z,18.37
2019-04-05T17:12:38.543Z,19.48
2019-04-05T17:15:08.119Z,19.77
2019-04-05T17:17:36.584Z,20.57
2019-04-05T17:20:05.873Z,17.65
2019-04-05T17:22:34.317Z,15.13
2019-04-05T17:25:02.754Z,15.00
2019-04-05T17:27:31.213Z,12.65
2019-04-05T17:29:59.650Z,10.82
2019-04-05T17:32:28.206Z,20.25
2019-04-05T17:34:56.703Z,47.17
2019-04-05T17:37:26.611Z,22.30
2019-04-05T17:39:55.426Z,29.02
2019-04-05T17:42:23.940Z,34.25
2019-04-05T17:44:52.415Z,26.97
2019-04-05T17:47:22.426Z,26.37
2019-04-05T17:49:50.880Z,19.70
2019-04-05T17:52:19.368Z,14.25
2019-04-05T17:54:47.863Z,18.95
2019-04-05T17:57:16.481Z,18.75
2019-04-05T17:59:45.019Z,18.80
2019-04-05T18:02:14.963Z,20.82
2019-04-05T18:04:43.419Z,18.32
2019-04-05T18:07:11.856Z,19.95
2019-04-05T18:09:40.286Z,12.63
2019-04-05T18:12:08.747Z,31.52
2019-04-05T18:14:37.171Z,33.65
2019-04-05T18:17:05.628Z,31.75
2019-04-05T18:19:34.067Z,28.02
2019-04-05T18:22:02.501Z,29.18
2019-04-05T18:24:30.937Z,29.57
2019-04-05T18:26:59.381Z,28.52
2019-04-05T18:29:27.809Z,32.25
2019-04-05T18:31:56.242Z,32.35
2019-04-05T18:34:24.668Z,31.07
2019-04-05T18:36:53.119Z,31.52
2019-04-05T18:39:21.563Z,33.15
2019-04-05T18:41:50.033Z,34.90
2019-04-05T18:44:18.457Z,34.40
2019-04-05T18:46:46.976Z,33.23
2019-04-05T18:49:15.415Z,36.13
2019-04-05T18:51:43.866Z,32.93
2019-04-05T18:54:12.317Z,34.13
2019-04-05T18:56:40.765Z,32.90
2019-04-05T18:59:09.212Z,35.98
2019-04-05T19:01:37.672Z,36.70
2019-04-05T19:04:06.131Z,35.50
2019-04-05T19:06:34.611Z,37.78
2019-04-05T19:09:04.700Z,34.92
2019-04-05T19:11:33.133Z,35.00
2019-04-05T19:14:01.725Z,37.35
2019-04-05T19:16:30.197Z,36.13
2019-04-05T19:18:58.647Z,37.45
2019-04-05T19:21:27.184Z,62.83
2019-04-05T19:23:55.636Z,78.40
2019-04-05T19:26:24.088Z,46.40
2019-04-05T19:28:52.553Z,42.35
2019-04-05T19:49:11.463Z,44.13
2019-04-05T19:51:39.893Z,42.62
2019-04-05T19:54:08.347Z,40.65
2019-04-05T19:56:36.810Z,42.13
2019-04-05T19:59:05.411Z,41.65
2019-04-05T20:01:33.834Z,40.35
2019-04-05T20:04:02.266Z,38.75
2019-04-05T20:06:30.700Z,38.85
2019-04-05T20:08:59.170Z,40.70
2019-04-05T20:11:27.601Z,54.93
2019-04-05T20:13:56.060Z,48.80
2019-04-05T20:16:24.501Z,37.00
2019-04-05T20:18:52.977Z,36.90
2019-04-05T20:21:21.429Z,33.88
2019-04-05T20:23:49.890Z,37.45
2019-04-05T20:26:18.344Z,74.27
2019-04-05T20:28:47.025Z,103.27
2019-04-05T20:31:15.491Z,64.40
2019-04-05T20:33:43.967Z,47.85
2019-04-05T20:36:12.574Z,42.35
2019-04-05T20:38:41.131Z,40.20
2019-04-05T20:41:09.565Z,44.98
2019-04-05T20:43:38.078Z,43.38
2019-04-05T20:46:06.524Z,39.23
2019-04-05T20:48:35.003Z,44.15
2019-04-05T20:51:03.515Z,40.33
2019-04-05T20:53:31.989Z,44.25
2019-04-05T20:56:00.428Z,35.28
2019-04-05T20:58:28.873Z,44.20
2019-04-05T21:00:59.315Z,43.85
2019-04-05T21:03:27.487Z,46.30
2019-04-05T21:05:56.049Z,43.48
2019-04-05T21:08:25.053Z,46.28
2019-04-05T21:10:53.535Z,46.55
2019-04-05T21:13:22.015Z,46.92
2019-04-05T21:15:50.447Z,55.88
2019-04-05T21:18:18.905Z,55.70
2019-04-05T21:20:47.331Z,48.58
2019-04-05T21:23:15.872Z,47.58
2019-04-05T21:25:44.521Z,46.42
2019-04-05T21:28:13.141Z,46.08
2019-04-05T21:30:41.640Z,47.30
2019-04-05T21:33:10.172Z,43.60
2019-04-05T21:35:38.761Z,45.00
2019-04-05T21:38:07.319Z,42.73
2019-04-05T21:40:35.816Z,46.23
2019-04-05T21:43:04.422Z,44.90
2019-04-05T21:45:32.937Z,41.20
2019-04-05T21:48:01.663Z,40.58
2019-04-05T21:50:30.325Z,39.55
2019-04-05T21:52:59.025Z,38.83
2019-04-05T21:55:27.713Z,35.65
2019-04-05T21:57:56.269Z,40.92
2019-04-05T22:00:41.638Z,43.70
2019-04-05T22:03:33.911Z,37.38
2019-04-05T22:06:02.328Z,32.60
2019-04-05T22:08:31.447Z,32.73
2019-04-05T22:10:59.936Z,31.60
2019-04-05T22:13:28.369Z,31.50
2019-04-05T22:15:56.844Z,33.80
2019-04-05T22:18:25.340Z,32.55
2019-04-05T22:20:53.825Z,28.27
2019-04-05T22:23:22.357Z,31.60
2019-04-05T22:25:51.325Z,30.10
2019-04-05T22:28:19.774Z,29.55
2019-04-05T22:30:48.722Z,41.15
2019-04-05T22:33:17.150Z,36.98
2019-04-05T22:35:45.675Z,27.80
2019-04-05T22:38:14.142Z,24.90
2019-04-05T22:40:42.573Z,25.45
2019-04-05T22:43:11.021Z,24.32
2019-04-05T22:45:39.471Z,25.85
2019-04-05T22:48:08.194Z,23.40
2019-04-05T22:50:36.697Z,21.20
2019-04-05T22:53:05.149Z,19.92
2019-04-05T22:55:33.629Z,19.85
2019-04-05T22:58:02.057Z,20.12
2019-04-05T23:00:30.517Z,19.40
2019-04-05T23:02:58.939Z,21.37
2019-04-05T23:05:28.231Z,21.95
2019-04-05T23:07:56.677Z,21.40
2019-04-05T23:10:25.119Z,21.15
2019-04-05T23:12:53.561Z,21.30
2019-04-05T23:15:22.010Z,20.30
2019-04-05T23:17:50.469Z,22.15
2019-04-05T23:20:18.982Z,22.73
2019-04-05T23:22:47.411Z,22.35
2019-04-05T23:25:21.919Z,22.48
2019-04-05T23:27:46.015Z,21.65
2019-04-05T23:30:14.793Z,22.87
2019-04-05T23:32:43.232Z,22.17
2019-04-05T23:35:11.680Z,20.82
2019-04-05T23:37:40.147Z,20.35
2019-04-05T23:40:08.670Z,22.42
2019-04-05T23:42:37.119Z,22.27
2019-04-05T23:45:06.360Z,21.93
2019-04-05T23:47:34.849Z,22.45
2019-04-05T23:50:04.830Z,22.10
2019-04-05T23:52:33.260Z,22.25
2019-04-05T23:55:01.752Z,20.48
2019-04-05T23:57:30.272Z,19.70
2019-04-05T23:59:58.762Z,19.35
